createdAt,value
2019-05-11T00:02:39.061Z,10.50
2019-05-11T00:07:57.717Z,10.67
2019-05-11T00:13:16.290Z,10.17
2019-05-11T00:18:34.875Z,11.00
2019-05-11T00:23:53.546Z,11.73
2019-05-11T00:29:12.124Z,14.47
2019-05-11T00:34:30.840Z,15.10
2019-05-11T00:39:49.477Z,14.80
2019-05-11T00:45:08.837Z,17.37
2019-05-11T00:50:38.543Z,16.27
2019-05-11T00:55:47.917Z,19.67
2019-05-11T01:01:06.563Z,19.63
2019-05-11T01:06:25.279Z,21.37
2019-05-11T01:11:44.190Z,21.00
2019-05-11T01:17:02.836Z,19.13
2019-05-11T01:22:21.445Z,15.93
2019-05-11T01:27:40.082Z,20.30
2019-05-11T01:32:58.726Z,26.52
2019-05-11T01:38:17.374Z,19.87
2019-05-11T01:43:35.940Z,19.50
2019-05-11T01:48:54.582Z,24.40
2019-05-11T01:54:13.266Z,22.67
2019-05-11T01:59:31.866Z,21.90
2019-05-11T02:04:52.140Z,20.57
2019-05-11T02:10:11.178Z,19.10
2019-05-11T02:15:29.822Z,19.97
2019-05-11T02:20:48.393Z,19.43
2019-05-11T02:26:06.956Z,21.33
2019-05-11T02:31:25.628Z,21.03
2019-05-11T02:36:44.135Z,21.67
2019-05-11T02:42:02.718Z,20.65
2019-05-11T02:47:21.365Z,21.47
2019-05-11T02:52:40.519Z,21.60
2019-05-11T02:57:59.265Z,21.53
2019-05-11T03:03:17.837Z,21.40
2019-05-11T03:08:36.512Z,18.80
2019-05-11T03:13:55.029Z,19.17
2019-05-11T03:19:13.655Z,19.67
2019-05-11T03:24:32.284Z,20.43
2019-05-11T03:29:50.939Z,22.07
2019-05-11T03:35:09.575Z,22.57
2019-05-11T03:40:28.309Z,19.70
2019-05-11T03:45:47.015Z,22.00
2019-05-11T03:51:05.740Z,19.90
2019-05-11T03:56:24.305Z,23.53
2019-05-11T04:01:42.860Z,23.70
2019-05-11T04:07:01.520Z,23.73
2019-05-11T04:12:34.310Z,24.00
2019-05-11T04:17:40.420Z,29.23
2019-05-11T04:22:59.061Z,25.50
2019-05-11T04:28:17.852Z,24.07
2019-05-11T04:33:36.419Z,25.70
2019-05-11T04:38:55.063Z,24.97
2019-05-11T04:44:13.708Z,34.13
2019-05-11T04:49:32.400Z,36.13
2019-05-11T04:54:51.086Z,33.33
2019-05-11T05:00:10.309Z,36.53
2019-05-11T05:05:28.948Z,28.37
2019-05-11T05:10:52.446Z,36.83
2019-05-11T05:16:07.904Z,34.73
2019-05-11T05:21:26.589Z,34.43
2019-05-11T05:26:45.400Z,33.43
2019-05-11T05:32:04.204Z,35.27
2019-05-11T05:37:22.807Z,30.32
2019-05-11T05:42:41.393Z,32.43
2019-05-11T05:48:00.037Z,31.53
2019-05-11T05:53:18.620Z,27.97
2019-05-11T05:58:37.359Z,26.20
2019-05-11T06:03:56.028Z,25.60
2019-05-11T06:09:14.619Z,28.37
2019-05-11T06:14:33.279Z,27.60
2019-05-11T06:19:51.771Z,25.33
2019-05-11T06:25:10.495Z,21.23
2019-05-11T06:30:29.086Z,22.07
2019-05-11T06:35:47.747Z,20.63
2019-05-11T06:41:06.290Z,24.53
2019-05-11T06:46:25.089Z,25.47
2019-05-11T06:51:43.774Z,25.40
2019-05-11T06:57:02.411Z,24.87
2019-05-11T07:02:20.984Z,29.63
2019-05-11T07:07:47.558Z,27.43
2019-05-11T07:12:59.852Z,27.57
2019-05-11T07:18:18.494Z,30.70
2019-05-11T07:23:37.071Z,32.93
2019-05-11T07:28:56.943Z,32.33
2019-05-11T07:34:15.581Z,33.70
2019-05-11T07:39:34.254Z,33.70
2019-05-11T07:44:52.851Z,34.50
2019-05-11T07:50:12.290Z,37.98
2019-05-11T07:55:31.068Z,39.73
2019-05-11T08:00:49.701Z,40.60
2019-05-11T08:06:08.884Z,41.73
2019-05-11T08:11:31.207Z,42.90
2019-05-11T08:16:48.243Z,42.93
2019-05-11T08:22:08.617Z,44.17
2019-05-11T08:27:28.607Z,44.27
2019-05-11T08:32:49.370Z,43.53
2019-05-11T08:38:08.833Z,39.57
2019-05-11T08:43:28.468Z,41.73
2019-05-11T08:48:47.882Z,38.50
2019-05-11T08:54:08.903Z,37.50
2019-05-11T08:59:28.527Z,36.03
2019-05-11T09:04:48.415Z,35.50
2019-05-11T09:10:08.251Z,34.07
2019-05-11T09:15:36.460Z,30.90
2019-05-11T09:20:48.676Z,28.43
2019-05-11T09:26:08.783Z,32.00
2019-05-11T09:31:28.070Z,25.90
2019-05-11T09:36:47.963Z,26.67
2019-05-11T09:42:07.737Z,24.23
2019-05-11T09:47:27.913Z,25.13
2019-05-11T09:52:48.973Z,24.40
2019-05-11T09:58:08.473Z,24.33
2019-05-11T10:03:28.114Z,23.07
2019-05-11T10:08:48.726Z,20.47
2019-05-11T10:14:08.403Z,20.27
2019-05-11T10:19:28.436Z,18.77
2019-05-11T10:24:47.766Z,16.77
2019-05-11T10:30:08.710Z,17.27
2019-05-11T10:35:28.913Z,17.23
2019-05-11T10:40:49.749Z,17.03
2019-05-11T10:46:16.964Z,15.03
2019-05-11T10:51:28.940Z,16.27
2019-05-11T10:56:48.248Z,15.33
2019-05-11T11:02:08.062Z,16.10
2019-05-11T11:07:28.853Z,13.63
2019-05-11T11:12:48.948Z,13.20
2019-05-11T11:18:08.531Z,15.50
2019-05-11T11:23:28.466Z,13.90
2019-05-11T11:28:48.062Z,14.73
2019-05-11T11:34:08.229Z,15.07
2019-05-11T11:39:28.267Z,16.07
2019-05-11T11:44:48.399Z,16.13
2019-05-11T11:50:09.325Z,14.93
2019-05-11T11:55:28.965Z,13.73
2019-05-11T12:00:48.293Z,13.60
2019-05-11T12:06:08.822Z,12.60
2019-05-11T12:11:28.093Z,13.13
2019-05-11T12:16:48.019Z,11.60
2019-05-11T12:22:08.648Z,12.37
2019-05-11T12:27:28.694Z,14.07
2019-05-11T12:32:49.099Z,12.87
2019-05-11T12:38:07.970Z,12.73
2019-05-11T12:43:27.698Z,12.93
2019-05-11T12:48:48.438Z,11.57
2019-05-11T12:54:08.413Z,11.53
2019-05-11T12:59:28.217Z,11.70
2019-05-11T13:04:48.377Z,10.63
2019-05-11T13:10:10.196Z,7.97
2019-05-11T13:15:28.865Z,7.77
2019-05-11T13:20:48.274Z,6.57
2019-05-11T13:26:08.738Z,6.23
2019-05-11T13:31:27.945Z,6.77
2019-05-11T13:36:48.753Z,5.33
2019-05-11T13:42:08.169Z,6.47
2019-05-11T13:47:28.294Z,6.23
2019-05-11T13:52:47.806Z,6.90
2019-05-11T13:58:08.301Z,6.03
2019-05-11T14:03:27.658Z,6.07
2019-05-11T14:08:48.176Z,5.50
2019-05-11T14:14:08.183Z,6.07
2019-05-11T14:19:29.032Z,6.27
2019-05-11T14:24:48.253Z,6.03
2019-05-11T14:30:08.701Z,6.60
2019-05-11T14:35:27.966Z,6.00
2019-05-11T14:40:48.076Z,6.07
2019-05-11T14:46:08.662Z,6.53
2019-05-11T14:51:28.253Z,7.30
2019-05-11T14:56:48.162Z,6.13
2019-05-11T15:02:08.730Z,6.75
2019-05-11T15:07:33.231Z,6.60
2019-05-11T15:12:51.936Z,6.03
2019-05-11T15:18:10.790Z,6.00
2019-05-11T15:23:29.428Z,6.63
2019-05-11T15:28:48.721Z,6.20
2019-05-11T15:34:08.506Z,6.37
2019-05-11T15:39:28.766Z,6.47
2019-05-11T15:44:49.249Z,6.17
2019-05-11T15:50:09.156Z,5.07
2019-05-11T15:55:28.027Z,6.23
2019-05-11T16:00:48.357Z,5.60
2019-05-11T16:06:07.833Z,5.90
2019-05-11T16:11:28.363Z,6.03
2019-05-11T16:16:48.094Z,5.57
2019-05-11T16:22:09.887Z,5.00
2019-05-11T16:27:28.498Z,5.70
2019-05-11T16:32:48.020Z,6.23
2019-05-11T16:38:07.740Z,5.53
2019-05-11T16:43:28.171Z,6.00
2019-05-11T16:48:47.125Z,5.97
2019-05-11T16:54:05.794Z,4.70
2019-05-11T16:59:24.404Z,5.40
2019-05-11T17:04:43.166Z,5.10
2019-05-11T17:10:01.816Z,4.80
2019-05-11T17:15:22.716Z,4.80
2019-05-11T17:20:41.542Z,2.93
2019-05-11T17:26:00.262Z,3.90
2019-05-11T17:31:19.248Z,4.90
2019-05-11T17:36:38.094Z,4.30
2019-05-11T17:41:58.299Z,5.23
2019-05-11T17:47:17.962Z,4.17
2019-05-11T17:52:38.656Z,2.60
2019-05-11T17:57:58.264Z,1.97
2019-05-11T18:03:17.346Z,2.87
2019-05-11T18:08:36.214Z,2.20
2019-05-11T18:13:54.776Z,2.05
2019-05-11T18:19:15.402Z,1.90
2019-05-11T18:24:34.510Z,2.00
2019-05-11T18:29:53.415Z,1.60
2019-05-11T18:35:13.316Z,1.87
2019-05-11T18:40:31.959Z,2.00
2019-05-11T18:45:50.713Z,1.80
2019-05-11T18:51:09.536Z,1.80
2019-05-11T18:56:28.646Z,2.17
2019-05-11T19:01:49.691Z,1.73
2019-05-11T19:07:16.183Z,1.80
2019-05-11T19:12:30.694Z,1.80
2019-05-11T19:17:49.681Z,2.00
2019-05-11T19:23:08.832Z,1.60
2019-05-11T19:28:31.772Z,2.30
2019-05-11T19:33:50.419Z,1.80
2019-05-11T19:39:11.268Z,1.80
2019-05-11T19:44:29.929Z,2.02
2019-05-11T19:49:48.607Z,1.93
2019-05-11T19:55:08.560Z,1.80
2019-05-11T20:00:27.754Z,1.70
2019-05-11T20:05:48.993Z,1.53
2019-05-11T20:11:08.255Z,2.00
2019-05-11T20:16:27.436Z,1.90
2019-05-11T20:21:48.419Z,2.17
2019-05-11T20:27:08.059Z,2.00
2019-05-11T20:32:28.317Z,1.73
2019-05-11T20:37:47.359Z,1.87
2019-05-11T20:43:08.025Z,1.87
2019-05-11T20:48:27.729Z,1.40
2019-05-11T20:53:48.982Z,1.63
2019-05-11T20:59:08.927Z,2.13
2019-05-11T21:04:28.265Z,1.90
2019-05-11T21:09:48.401Z,1.90
2019-05-11T21:15:09.102Z,2.10
2019-05-11T21:20:28.689Z,2.27
2019-05-11T21:25:47.742Z,2.05
2019-05-11T21:31:07.987Z,1.93
2019-05-11T21:36:28.360Z,2.17
2019-05-11T21:41:47.782Z,2.10
2019-05-11T21:47:07.743Z,2.20
2019-05-11T21:52:28.742Z,2.00
2019-05-11T21:57:49.477Z,2.30
2019-05-11T22:03:09.956Z,2.43
2019-05-11T22:08:28.337Z,1.92
2019-05-11T22:13:48.436Z,2.27
2019-05-11T22:19:08.870Z,2.20
2019-05-11T22:24:30.592Z,2.20
2019-05-11T22:29:49.265Z,2.37
2019-05-11T22:35:09.072Z,1.90
2019-05-11T22:40:28.238Z,2.50
2019-05-11T22:45:48.607Z,2.13
2019-05-11T22:51:07.976Z,2.30
2019-05-11T22:56:28.520Z,2.30
2019-05-11T23:01:48.328Z,1.93
2019-05-11T23:07:07.945Z,2.53
2019-05-11T23:12:28.538Z,2.92
2019-05-11T23:17:47.187Z,2.53
2019-05-11T23:23:05.841Z,2.43
2019-05-11T23:28:24.400Z,2.00
2019-05-11T23:33:42.970Z,2.37
2019-05-11T23:39:01.608Z,2.57
2019-05-11T23:44:20.277Z,2.47
2019-05-11T23:49:39.220Z,2.45
2019-05-11T23:54:58.946Z,2.27
